sensor_id;sensor_type;location;lat;lon;timestamp;temperature;humidity
77865;DHT22;67061;48.524;9.040;2023-10-08T00:01:30;10.00;87.90
77865;DHT22;67061;48.524;9.040;2023-10-08T00:03:59;10.00;87.80
77865;DHT22;67061;48.524;9.040;2023-10-08T00:06:29;9.90;87.70
77865;DHT22;67061;48.524;9.040;2023-10-08T00:08:58;10.00;87.80
77865;DHT22;67061;48.524;9.040;2023-10-08T00:11:26;10.00;88.20
77865;DHT22;67061;48.524;9.040;2023-10-08T00:13:54;10.00;88.30
77865;DHT22;67061;48.524;9.040;2023-10-08T00:16:22;10.00;88.10
77865;DHT22;67061;48.524;9.040;2023-10-08T00:18:50;10.00;88.70
77865;DHT22;67061;48.524;9.040;2023-10-08T00:21:18;10.00;88.20
77865;DHT22;67061;48.524;9.040;2023-10-08T00:23:51;10.00;88.50
77865;DHT22;67061;48.524;9.040;2023-10-08T00:26:18;10.00;88.20
77865;DHT22;67061;48.524;9.040;2023-10-08T00:28:54;10.10;87.20
77865;DHT22;67061;48.524;9.040;2023-10-08T00:31:21;10.10;88.20
77865;DHT22;67061;48.524;9.040;2023-10-08T00:33:53;10.10;87.10
77865;DHT22;67061;48.524;9.040;2023-10-08T00:36:20;10.10;88.30
77865;DHT22;67061;48.524;9.040;2023-10-08T00:38:47;10.10;87.70
77865;DHT22;67061;48.524;9.040;2023-10-08T00:41:16;10.10;87.40
77865;DHT22;67061;48.524;9.040;2023-10-08T00:43:48;10.10;88.30
77865;DHT22;67061;48.524;9.040;2023-10-08T00:46:17;10.10;87.70
77865;DHT22;67061;48.524;9.040;2023-10-08T00:48:49;10.20;87.20
77865;DHT22;67061;48.524;9.040;2023-10-08T00:51:18;10.20;86.30
77865;DHT22;67061;48.524;9.040;2023-10-08T00:53:56;10.20;85.50
77865;DHT22;67061;48.524;9.040;2023-10-08T00:56:32;10.10;85.50
77865;DHT22;67061;48.524;9.040;2023-10-08T00:59:16;10.10;85.40
77865;DHT22;67061;48.524;9.040;2023-10-08T01:01:47;10.00;85.80
77865;DHT22;67061;48.524;9.040;2023-10-08T01:04:17;10.00;86.50
77865;DHT22;67061;48.524;9.040;2023-10-08T01:06:49;10.00;86.40
77865;DHT22;67061;48.524;9.040;2023-10-08T01:09:19;9.90;86.30
77865;DHT22;67061;48.524;9.040;2023-10-08T01:12:07;9.80;86.70
77865;DHT22;67061;48.524;9.040;2023-10-08T01:14:37;9.80;86.90
77865;DHT22;67061;48.524;9.040;2023-10-08T01:17:07;9.80;87.20
77865;DHT22;67061;48.524;9.040;2023-10-08T01:19:35;9.70;87.00
77865;DHT22;67061;48.524;9.040;2023-10-08T01:22:09;9.60;87.90
77865;DHT22;67061;48.524;9.040;2023-10-08T01:24:42;9.60;88.10
77865;DHT22;67061;48.524;9.040;2023-10-08T01:27:10;9.60;88.60
77865;DHT22;67061;48.524;9.040;2023-10-08T01:29:38;9.50;88.00
77865;DHT22;67061;48.524;9.040;2023-10-08T01:32:05;9.50;88.30
77865;DHT22;67061;48.524;9.040;2023-10-08T01:34:36;9.50;87.50
77865;DHT22;67061;48.524;9.040;2023-10-08T01:37:04;9.50;87.40
77865;DHT22;67061;48.524;9.040;2023-10-08T01:39:37;9.50;87.50
77865;DHT22;67061;48.524;9.040;2023-10-08T01:42:07;9.50;87.50
77865;DHT22;67061;48.524;9.040;2023-10-08T01:44:40;9.50;87.40
77865;DHT22;67061;48.524;9.040;2023-10-08T01:47:10;9.40;87.10
77865;DHT22;67061;48.524;9.040;2023-10-08T01:49:37;9.40;87.60
77865;DHT22;67061;48.524;9.040;2023-10-08T01:52:05;9.40;87.80
77865;DHT22;67061;48.524;9.040;2023-10-08T01:54:39;9.40;87.60
77865;DHT22;67061;48.524;9.040;2023-10-08T01:57:06;9.40;87.30
77865;DHT22;67061;48.524;9.040;2023-10-08T01:59:35;9.40;87.80
77865;DHT22;67061;48.524;9.040;2023-10-08T02:02:03;9.40;87.50
77865;DHT22;67061;48.524;9.040;2023-10-08T02:04:31;9.40;88.10
77865;DHT22;67061;48.524;9.040;2023-10-08T02:07:01;9.40;88.20
77865;DHT22;67061;48.524;9.040;2023-10-08T02:09:29;9.40;88.40
77865;DHT22;67061;48.524;9.040;2023-10-08T02:12:00;9.30;88.20
77865;DHT22;67061;48.524;9.040;2023-10-08T02:14:27;9.20;88.80
77865;DHT22;67061;48.524;9.040;2023-10-08T02:16:57;9.20;88.90
77865;DHT22;67061;48.524;9.040;2023-10-08T02:19:29;9.20;89.00
77865;DHT22;67061;48.524;9.040;2023-10-08T02:21:56;9.20;89.10
77865;DHT22;67061;48.524;9.040;2023-10-08T02:24:24;9.20;89.70
77865;DHT22;67061;48.524;9.040;2023-10-08T02:26:51;9.20;88.90
77865;DHT22;67061;48.524;9.040;2023-10-08T02:29:21;9.10;89.10
77865;DHT22;67061;48.524;9.040;2023-10-08T02:31:47;9.00;89.30
77865;DHT22;67061;48.524;9.040;2023-10-08T02:34:14;9.00;89.50
77865;DHT22;67061;48.524;9.040;2023-10-08T02:36:41;9.00;89.70
77865;DHT22;67061;48.524;9.040;2023-10-08T02:39:08;9.00;89.60
77865;DHT22;67061;48.524;9.040;2023-10-08T02:41:42;8.90;89.30
77865;DHT22;67061;48.524;9.040;2023-10-08T02:44:11;8.90;89.40
77865;DHT22;67061;48.524;9.040;2023-10-08T02:46:41;8.90;89.80
77865;DHT22;67061;48.524;9.040;2023-10-08T02:49:08;8.90;89.50
77865;DHT22;67061;48.524;9.040;2023-10-08T02:51:38;8.90;89.80
77865;DHT22;67061;48.524;9.040;2023-10-08T02:54:07;8.90;90.10
77865;DHT22;67061;48.524;9.040;2023-10-08T02:56:42;8.80;89.60
77865;DHT22;67061;48.524;9.040;2023-10-08T02:59:11;8.80;89.60
77865;DHT22;67061;48.524;9.040;2023-10-08T03:01:40;8.80;89.20
77865;DHT22;67061;48.524;9.040;2023-10-08T03:04:08;8.80;89.20
77865;DHT22;67061;48.524;9.040;2023-10-08T03:06:43;8.80;89.00
77865;DHT22;67061;48.524;9.040;2023-10-08T03:09:11;8.80;89.40
77865;DHT22;67061;48.524;9.040;2023-10-08T03:11:39;8.70;90.00
77865;DHT22;67061;48.524;9.040;2023-10-08T03:14:12;8.80;89.70
77865;DHT22;67061;48.524;9.040;2023-10-08T03:16:49;8.80;90.40
77865;DHT22;67061;48.524;9.040;2023-10-08T03:19:16;8.70;90.20
77865;DHT22;67061;48.524;9.040;2023-10-08T03:21:46;8.70;90.10
77865;DHT22;67061;48.524;9.040;2023-10-08T03:24:17;8.70;90.30
77865;DHT22;67061;48.524;9.040;2023-10-08T03:27:01;8.80;90.70
77865;DHT22;67061;48.524;9.040;2023-10-08T03:29:33;8.70;90.70
77865;DHT22;67061;48.524;9.040;2023-10-08T03:32:08;8.80;91.00
77865;DHT22;67061;48.524;9.040;2023-10-08T03:34:44;8.80;90.70
77865;DHT22;67061;48.524;9.040;2023-10-08T03:37:12;8.80;90.80
77865;DHT22;67061;48.524;9.040;2023-10-08T03:39:46;8.80;90.90
77865;DHT22;67061;48.524;9.040;2023-10-08T03:42:26;8.80;91.30
77865;DHT22;67061;48.524;9.040;2023-10-08T03:45:00;8.80;91.50
77865;DHT22;67061;48.524;9.040;2023-10-08T03:47:38;8.70;91.60
77865;DHT22;67061;48.524;9.040;2023-10-08T03:50:06;8.70;91.70
77865;DHT22;67061;48.524;9.040;2023-10-08T03:52:35;8.70;91.50
77865;DHT22;67061;48.524;9.040;2023-10-08T03:55:04;8.60;91.80
77865;DHT22;67061;48.524;9.040;2023-10-08T03:57:39;8.60;92.30
77865;DHT22;67061;48.524;9.040;2023-10-08T04:00:10;8.60;92.50
77865;DHT22;67061;48.524;9.040;2023-10-08T04:02:44;8.60;92.40
77865;DHT22;67061;48.524;9.040;2023-10-08T04:05:20;8.60;92.60
77865;DHT22;67061;48.524;9.040;2023-10-08T04:07:49;8.60;92.40
77865;DHT22;67061;48.524;9.040;2023-10-08T04:10:36;8.60;92.10
77865;DHT22;67061;48.524;9.040;2023-10-08T04:13:26;8.60;92.00
77865;DHT22;67061;48.524;9.040;2023-10-08T04:15:53;8.60;92.60
77865;DHT22;67061;48.524;9.040;2023-10-08T04:18:22;8.60;92.10
77865;DHT22;67061;48.524;9.040;2023-10-08T04:20:49;8.60;92.90
77865;DHT22;67061;48.524;9.040;2023-10-08T04:23:26;8.50;92.20
77865;DHT22;67061;48.524;9.040;2023-10-08T04:25:54;8.50;92.80
77865;DHT22;67061;48.524;9.040;2023-10-08T04:28:22;8.40;93.00
77865;DHT22;67061;48.524;9.040;2023-10-08T04:30:54;8.40;92.90
77865;DHT22;67061;48.524;9.040;2023-10-08T04:33:28;8.40;93.30
77865;DHT22;67061;48.524;9.040;2023-10-08T04:35:59;8.40;93.70
77865;DHT22;67061;48.524;9.040;2023-10-08T04:38:28;8.40;93.50
77865;DHT22;67061;48.524;9.040;2023-10-08T04:41:02;8.40;93.00
77865;DHT22;67061;48.524;9.040;2023-10-08T04:43:35;8.40;93.20
77865;DHT22;67061;48.524;9.040;2023-10-08T04:46:04;8.40;93.80
77865;DHT22;67061;48.524;9.040;2023-10-08T04:48:45;8.40;93.80
77865;DHT22;67061;48.524;9.040;2023-10-08T04:51:12;8.40;93.70
77865;DHT22;67061;48.524;9.040;2023-10-08T04:53:39;8.40;94.30
77865;DHT22;67061;48.524;9.040;2023-10-08T04:56:12;8.40;93.70
77865;DHT22;67061;48.524;9.040;2023-10-08T04:58:43;8.40;93.90
77865;DHT22;67061;48.524;9.040;2023-10-08T05:01:12;8.40;94.00
77865;DHT22;67061;48.524;9.040;2023-10-08T05:03:49;8.40;94.00
77865;DHT22;67061;48.524;9.040;2023-10-08T05:06:34;8.40;93.70
77865;DHT22;67061;48.524;9.040;2023-10-08T05:09:16;8.40;93.80
77865;DHT22;67061;48.524;9.040;2023-10-08T05:11:50;8.40;93.40
77865;DHT22;67061;48.524;9.040;2023-10-08T05:14:31;8.30;93.80
77865;DHT22;67061;48.524;9.040;2023-10-08T05:17:06;8.30;94.10
77865;DHT22;67061;48.524;9.040;2023-10-08T05:19:37;8.30;93.40
77865;DHT22;67061;48.524;9.040;2023-10-08T05:22:14;8.30;93.90
77865;DHT22;67061;48.524;9.040;2023-10-08T05:25:00;8.30;93.40
77865;DHT22;67061;48.524;9.040;2023-10-08T05:27:33;8.30;93.70
77865;DHT22;67061;48.524;9.040;2023-10-08T05:30:19;8.30;93.20
77865;DHT22;67061;48.524;9.040;2023-10-08T05:32:54;8.30;93.30
77865;DHT22;67061;48.524;9.040;2023-10-08T05:35:40;8.30;93.30
77865;DHT22;67061;48.524;9.040;2023-10-08T05:38:21;8.30;93.50
77865;DHT22;67061;48.524;9.040;2023-10-08T05:41:14;8.30;93.90
77865;DHT22;67061;48.524;9.040;2023-10-08T05:44:05;8.30;93.80
77865;DHT22;67061;48.524;9.040;2023-10-08T05:46:49;8.30;93.80
77865;DHT22;67061;48.524;9.040;2023-10-08T05:49:30;8.30;93.70
77865;DHT22;67061;48.524;9.040;2023-10-08T05:52:20;8.20;93.80
77865;DHT22;67061;48.524;9.040;2023-10-08T05:55:07;8.20;94.40
77865;DHT22;67061;48.524;9.040;2023-10-08T05:57:51;8.20;94.50
77865;DHT22;67061;48.524;9.040;2023-10-08T06:00:28;8.20;95.00
77865;DHT22;67061;48.524;9.040;2023-10-08T06:03:31;8.20;95.50
77865;DHT22;67061;48.524;9.040;2023-10-08T06:06:14;8.20;94.80
77865;DHT22;67061;48.524;9.040;2023-10-08T06:09:06;8.20;94.60
77865;DHT22;67061;48.524;9.040;2023-10-08T06:11:48;8.20;94.70
77865;DHT22;67061;48.524;9.040;2023-10-08T06:14:38;8.20;94.30
77865;DHT22;67061;48.524;9.040;2023-10-08T06:17:28;8.30;93.90
77865;DHT22;67061;48.524;9.040;2023-10-08T06:20:22;8.30;94.20
77865;DHT22;67061;48.524;9.040;2023-10-08T06:22:53;8.40;93.40
77865;DHT22;67061;48.524;9.040;2023-10-08T06:25:35;8.40;93.50
77865;DHT22;67061;48.524;9.040;2023-10-08T06:28:12;8.40;93.40
77865;DHT22;67061;48.524;9.040;2023-10-08T06:30:40;8.40;93.30
77865;DHT22;67061;48.524;9.040;2023-10-08T06:33:09;8.40;93.60
77865;DHT22;67061;48.524;9.040;2023-10-08T06:35:36;8.50;93.50
77865;DHT22;67061;48.524;9.040;2023-10-08T06:38:03;8.50;93.70
77865;DHT22;67061;48.524;9.040;2023-10-08T06:40:36;8.50;93.20
77865;DHT22;67061;48.524;9.040;2023-10-08T06:43:07;8.60;93.00
77865;DHT22;67061;48.524;9.040;2023-10-08T06:45:48;8.60;93.00
77865;DHT22;67061;48.524;9.040;2023-10-08T06:48:18;8.70;93.00
77865;DHT22;67061;48.524;9.040;2023-10-08T06:50:47;8.80;92.00
77865;DHT22;67061;48.524;9.040;2023-10-08T06:53:14;8.80;92.10
77865;DHT22;67061;48.524;9.040;2023-10-08T06:55:45;8.80;91.80
77865;DHT22;67061;48.524;9.040;2023-10-08T06:58:14;8.90;91.50
77865;DHT22;67061;48.524;9.040;2023-10-08T07:00:42;9.00;91.10
77865;DHT22;67061;48.524;9.040;2023-10-08T07:03:15;9.00;90.80
77865;DHT22;67061;48.524;9.040;2023-10-08T07:05:44;9.20;89.80
77865;DHT22;67061;48.524;9.040;2023-10-08T07:08:20;9.30;90.10
77865;DHT22;67061;48.524;9.040;2023-10-08T07:10:50;9.50;89.50
77865;DHT22;67061;48.524;9.040;2023-10-08T07:13:17;9.70;88.90
77865;DHT22;67061;48.524;9.040;2023-10-08T07:15:45;9.90;88.70
77865;DHT22;67061;48.524;9.040;2023-10-08T07:18:12;10.00;87.70
77865;DHT22;67061;48.524;9.040;2023-10-08T07:20:44;10.20;86.70
77865;DHT22;67061;48.524;9.040;2023-10-08T07:23:11;10.40;86.10
77865;DHT22;67061;48.524;9.040;2023-10-08T07:25:48;10.60;84.80
77865;DHT22;67061;48.524;9.040;2023-10-08T07:28:20;10.70;84.60
77865;DHT22;67061;48.524;9.040;2023-10-08T07:30:47;10.80;83.40
77865;DHT22;67061;48.524;9.040;2023-10-08T07:33:15;10.90;82.80
77865;DHT22;67061;48.524;9.040;2023-10-08T07:35:46;11.10;83.30
77865;DHT22;67061;48.524;9.040;2023-10-08T07:38:29;11.20;82.20
77865;DHT22;67061;48.524;9.040;2023-10-08T07:40:56;11.40;82.40
77865;DHT22;67061;48.524;9.040;2023-10-08T07:43:25;11.50;81.90
77865;DHT22;67061;48.524;9.040;2023-10-08T07:45:52;11.70;82.90
77865;DHT22;67061;48.524;9.040;2023-10-08T07:48:20;11.70;82.50
77865;DHT22;67061;48.524;9.040;2023-10-08T07:50:50;11.90;81.10
77865;DHT22;67061;48.524;9.040;2023-10-08T07:53:17;12.10;79.40
77865;DHT22;67061;48.524;9.040;2023-10-08T07:55:47;12.20;78.90
77865;DHT22;67061;48.524;9.040;2023-10-08T07:58:15;12.50;77.20
77865;DHT22;67061;48.524;9.040;2023-10-08T08:00:44;12.70;76.60
77865;DHT22;67061;48.524;9.040;2023-10-08T08:03:21;12.90;76.50
77865;DHT22;67061;48.524;9.040;2023-10-08T08:05:48;13.10;74.60
77865;DHT22;67061;48.524;9.040;2023-10-08T08:08:20;13.30;75.10
77865;DHT22;67061;48.524;9.040;2023-10-08T08:10:49;13.50;74.30
77865;DHT22;67061;48.524;9.040;2023-10-08T08:13:24;13.70;75.30
77865;DHT22;67061;48.524;9.040;2023-10-08T08:15:55;13.90;74.90
77865;DHT22;67061;48.524;9.040;2023-10-08T08:18:25;14.00;74.50
77865;DHT22;67061;48.524;9.040;2023-10-08T08:21:00;14.10;74.40
77865;DHT22;67061;48.524;9.040;2023-10-08T08:23:29;14.20;75.50
77865;DHT22;67061;48.524;9.040;2023-10-08T08:25:57;14.30;74.20
77865;DHT22;67061;48.524;9.040;2023-10-08T08:28:37;14.40;75.10
77865;DHT22;67061;48.524;9.040;2023-10-08T08:31:06;14.50;74.10
77865;DHT22;67061;48.524;9.040;2023-10-08T08:33:40;14.60;73.20
77865;DHT22;67061;48.524;9.040;2023-10-08T08:36:20;14.70;73.10
77865;DHT22;67061;48.524;9.040;2023-10-08T08:38:47;14.90;72.40
77865;DHT22;67061;48.524;9.040;2023-10-08T08:41:14;15.00;72.10
77865;DHT22;67061;48.524;9.040;2023-10-08T08:43:47;15.00;72.00
77865;DHT22;67061;48.524;9.040;2023-10-08T08:46:16;15.20;71.50
77865;DHT22;67061;48.524;9.040;2023-10-08T08:48:44;15.30;71.30
77865;DHT22;67061;48.524;9.040;2023-10-08T08:51:11;15.50;71.20
77865;DHT22;67061;48.524;9.040;2023-10-08T08:53:39;15.60;71.10
77865;DHT22;67061;48.524;9.040;2023-10-08T08:56:09;15.70;70.50
77865;DHT22;67061;48.524;9.040;2023-10-08T08:58:36;15.90;69.60
77865;DHT22;67061;48.524;9.040;2023-10-08T09:01:06;16.00;70.10
77865;DHT22;67061;48.524;9.040;2023-10-08T09:03:36;16.20;70.00
77865;DHT22;67061;48.524;9.040;2023-10-08T09:06:05;16.40;69.40
77865;DHT22;67061;48.524;9.040;2023-10-08T09:08:35;16.60;69.50
77865;DHT22;67061;48.524;9.040;2023-10-08T09:11:03;16.70;68.70
77865;DHT22;67061;48.524;9.040;2023-10-08T09:13:31;16.90;67.10
77865;DHT22;67061;48.524;9.040;2023-10-08T09:16:06;17.40;64.50
77865;DHT22;67061;48.524;9.040;2023-10-08T09:18:35;17.60;64.70
77865;DHT22;67061;48.524;9.040;2023-10-08T09:21:10;17.80;65.00
77865;DHT22;67061;48.524;9.040;2023-10-08T09:23:41;17.90;64.80
77865;DHT22;67061;48.524;9.040;2023-10-08T09:26:12;18.00;64.80
77865;DHT22;67061;48.524;9.040;2023-10-08T09:28:40;18.20;63.30
77865;DHT22;67061;48.524;9.040;2023-10-08T09:31:12;18.30;62.30
77865;DHT22;67061;48.524;9.040;2023-10-08T09:33:41;18.50;61.70
77865;DHT22;67061;48.524;9.040;2023-10-08T09:36:09;18.80;61.60
77865;DHT22;67061;48.524;9.040;2023-10-08T09:38:45;18.80;61.40
77865;DHT22;67061;48.524;9.040;2023-10-08T09:41:14;19.00;60.20
77865;DHT22;67061;48.524;9.040;2023-10-08T09:43:41;19.10;60.40
77865;DHT22;67061;48.524;9.040;2023-10-08T09:46:12;19.20;59.50
77865;DHT22;67061;48.524;9.040;2023-10-08T09:48:42;19.30;59.00
77865;DHT22;67061;48.524;9.040;2023-10-08T09:51:11;19.50;59.70
77865;DHT22;67061;48.524;9.040;2023-10-08T09:53:47;19.60;58.00
77865;DHT22;67061;48.524;9.040;2023-10-08T09:56:15;19.80;58.60
77865;DHT22;67061;48.524;9.040;2023-10-08T09:58:43;20.10;56.90
77865;DHT22;67061;48.524;9.040;2023-10-08T10:01:11;20.30;56.60
77865;DHT22;67061;48.524;9.040;2023-10-08T10:03:38;20.50;56.60
77865;DHT22;67061;48.524;9.040;2023-10-08T10:06:13;20.70;55.00
77865;DHT22;67061;48.524;9.040;2023-10-08T10:08:42;20.90;55.70
77865;DHT22;67061;48.524;9.040;2023-10-08T10:11:09;21.00;58.50
77865;DHT22;67061;48.524;9.040;2023-10-08T10:13:42;21.10;54.10
77865;DHT22;67061;48.524;9.040;2023-10-08T10:16:10;21.30;55.70
77865;DHT22;67061;48.524;9.040;2023-10-08T10:18:38;21.40;53.90
77865;DHT22;67061;48.524;9.040;2023-10-08T10:21:26;21.50;54.80
77865;DHT22;67061;48.524;9.040;2023-10-08T10:23:53;21.70;53.10
77865;DHT22;67061;48.524;9.040;2023-10-08T10:26:23;21.90;53.90
77865;DHT22;67061;48.524;9.040;2023-10-08T10:29:22;22.00;52.20
77865;DHT22;67061;48.524;9.040;2023-10-08T10:31:53;22.20;51.60
77865;DHT22;67061;48.524;9.040;2023-10-08T10:34:21;22.30;51.00
77865;DHT22;67061;48.524;9.040;2023-10-08T10:36:51;22.50;48.90
77865;DHT22;67061;48.524;9.040;2023-10-08T10:39:25;22.50;51.60
77865;DHT22;67061;48.524;9.040;2023-10-08T10:41:58;22.70;49.00
77865;DHT22;67061;48.524;9.040;2023-10-08T10:44:27;22.70;48.80
77865;DHT22;67061;48.524;9.040;2023-10-08T10:46:56;22.80;48.70
77865;DHT22;67061;48.524;9.040;2023-10-08T10:49:37;22.70;50.00
77865;DHT22;67061;48.524;9.040;2023-10-08T10:52:15;22.70;49.30
77865;DHT22;67061;48.524;9.040;2023-10-08T10:54:51;22.80;49.40
77865;DHT22;67061;48.524;9.040;2023-10-08T10:57:25;23.20;45.60
77865;DHT22;67061;48.524;9.040;2023-10-08T11:00:02;23.50;44.10
77865;DHT22;67061;48.524;9.040;2023-10-08T11:02:51;23.80;46.10
77865;DHT22;67061;48.524;9.040;2023-10-08T11:05:23;23.90;46.10
77865;DHT22;67061;48.524;9.040;2023-10-08T11:07:55;24.10;43.00
77865;DHT22;67061;48.524;9.040;2023-10-08T11:10:30;24.40;41.70
77865;DHT22;67061;48.524;9.040;2023-10-08T11:12:58;24.70;42.30
77865;DHT22;67061;48.524;9.040;2023-10-08T11:15:27;25.00;41.60
77865;DHT22;67061;48.524;9.040;2023-10-08T11:18:07;25.20;40.10
77865;DHT22;67061;48.524;9.040;2023-10-08T11:20:35;25.50;39.90
77865;DHT22;67061;48.524;9.040;2023-10-08T11:23:06;25.60;40.10
77865;DHT22;67061;48.524;9.040;2023-10-08T11:25:52;25.50;39.40
77865;DHT22;67061;48.524;9.040;2023-10-08T11:28:19;25.50;39.70
77865;DHT22;67061;48.524;9.040;2023-10-08T11:30:48;25.60;39.80
77865;DHT22;67061;48.524;9.040;2023-10-08T11:33:17;25.60;39.60
77865;DHT22;67061;48.524;9.040;2023-10-08T11:35:56;25.70;38.80
77865;DHT22;67061;48.524;9.040;2023-10-08T11:38:25;25.60;37.70
77865;DHT22;67061;48.524;9.040;2023-10-08T11:40:54;25.60;38.90
77865;DHT22;67061;48.524;9.040;2023-10-08T11:43:23;25.50;39.10
77865;DHT22;67061;48.524;9.040;2023-10-08T11:45:51;25.60;38.80
77865;DHT22;67061;48.524;9.040;2023-10-08T11:48:18;25.60;38.40
77865;DHT22;67061;48.524;9.040;2023-10-08T11:50:54;25.60;37.60
77865;DHT22;67061;48.524;9.040;2023-10-08T11:53:23;25.60;38.90
77865;DHT22;67061;48.524;9.040;2023-10-08T11:55:51;25.50;39.40
77865;DHT22;67061;48.524;9.040;2023-10-08T11:58:22;25.50;37.80
77865;DHT22;67061;48.524;9.040;2023-10-08T12:01:03;25.50;38.80
77865;DHT22;67061;48.524;9.040;2023-10-08T12:03:30;25.60;40.40
77865;DHT22;67061;48.524;9.040;2023-10-08T12:06:00;25.80;37.40
77865;DHT22;67061;48.524;9.040;2023-10-08T12:08:28;26.00;38.00
77865;DHT22;67061;48.524;9.040;2023-10-08T12:10:56;26.20;39.90
77865;DHT22;67061;48.524;9.040;2023-10-08T12:13:25;26.80;35.20
77865;DHT22;67061;48.524;9.040;2023-10-08T12:15:54;27.00;35.10
77865;DHT22;67061;48.524;9.040;2023-10-08T12:18:31;27.00;35.40
77865;DHT22;67061;48.524;9.040;2023-10-08T12:21:05;26.80;35.10
77865;DHT22;67061;48.524;9.040;2023-10-08T12:23:36;26.70;34.90
77865;DHT22;67061;48.524;9.040;2023-10-08T12:26:04;26.70;35.90
77865;DHT22;67061;48.524;9.040;2023-10-08T12:28:33;26.70;36.10
77865;DHT22;67061;48.524;9.040;2023-10-08T12:31:01;26.80;35.70
77865;DHT22;67061;48.524;9.040;2023-10-08T12:33:29;26.90;35.40
77865;DHT22;67061;48.524;9.040;2023-10-08T12:35:58;27.10;36.00
77865;DHT22;67061;48.524;9.040;2023-10-08T12:38:36;27.20;35.90
77865;DHT22;67061;48.524;9.040;2023-10-08T12:41:04;27.40;34.50
77865;DHT22;67061;48.524;9.040;2023-10-08T12:43:38;27.50;35.00
77865;DHT22;67061;48.524;9.040;2023-10-08T12:46:08;27.50;34.00
77865;DHT22;67061;48.524;9.040;2023-10-08T12:48:43;27.50;33.40
77865;DHT22;67061;48.524;9.040;2023-10-08T12:51:14;27.50;34.20
77865;DHT22;67061;48.524;9.040;2023-10-08T12:53:41;27.50;32.90
77865;DHT22;67061;48.524;9.040;2023-10-08T12:56:17;27.30;34.10
77865;DHT22;67061;48.524;9.040;2023-10-08T12:58:47;27.20;33.50
77865;DHT22;67061;48.524;9.040;2023-10-08T13:01:19;27.00;34.50
77865;DHT22;67061;48.524;9.040;2023-10-08T13:03:46;26.80;33.70
77865;DHT22;67061;48.524;9.040;2023-10-08T13:06:20;26.80;35.40
77865;DHT22;67061;48.524;9.040;2023-10-08T13:08:49;26.90;34.10
77865;DHT22;67061;48.524;9.040;2023-10-08T13:11:19;26.90;34.20
77865;DHT22;67061;48.524;9.040;2023-10-08T13:13:49;26.80;34.90
77865;DHT22;67061;48.524;9.040;2023-10-08T13:16:17;26.80;34.10
77865;DHT22;67061;48.524;9.040;2023-10-08T13:18:44;26.80;33.90
77865;DHT22;67061;48.524;9.040;2023-10-08T13:21:11;26.70;35.30
77865;DHT22;67061;48.524;9.040;2023-10-08T13:23:38;26.60;34.70
77865;DHT22;67061;48.524;9.040;2023-10-08T13:26:05;26.70;34.90
77865;DHT22;67061;48.524;9.040;2023-10-08T13:28:35;26.70;35.50
77865;DHT22;67061;48.524;9.040;2023-10-08T13:31:02;26.60;35.10
77865;DHT22;67061;48.524;9.040;2023-10-08T13:33:36;26.60;34.80
77865;DHT22;67061;48.524;9.040;2023-10-08T13:36:05;26.60;35.10
77865;DHT22;67061;48.524;9.040;2023-10-08T13:38:35;26.60;34.60
77865;DHT22;67061;48.524;9.040;2023-10-08T13:41:02;26.60;35.10
77865;DHT22;67061;48.524;9.040;2023-10-08T13:43:30;26.60;35.50
77865;DHT22;67061;48.524;9.040;2023-10-08T13:46:03;26.70;34.60
77865;DHT22;67061;48.524;9.040;2023-10-08T13:48:32;26.70;34.30
77865;DHT22;67061;48.524;9.040;2023-10-08T13:51:00;26.50;34.50
77865;DHT22;67061;48.524;9.040;2023-10-08T13:53:30;26.50;34.90
77865;DHT22;67061;48.524;9.040;2023-10-08T13:55:58;26.40;36.50
77865;DHT22;67061;48.524;9.040;2023-10-08T13:58:26;26.40;36.70
77865;DHT22;67061;48.524;9.040;2023-10-08T14:00:55;26.20;36.20
77865;DHT22;67061;48.524;9.040;2023-10-08T14:03:27;26.20;36.10
77865;DHT22;67061;48.524;9.040;2023-10-08T14:05:57;26.10;36.50
77865;DHT22;67061;48.524;9.040;2023-10-08T14:08:28;26.10;35.40
77865;DHT22;67061;48.524;9.040;2023-10-08T14:10:56;26.20;35.80
77865;DHT22;67061;48.524;9.040;2023-10-08T14:13:29;26.10;36.20
77865;DHT22;67061;48.524;9.040;2023-10-08T14:15:57;26.10;35.40
77865;DHT22;67061;48.524;9.040;2023-10-08T14:18:24;26.20;35.90
77865;DHT22;67061;48.524;9.040;2023-10-08T14:20:55;26.00;36.90
77865;DHT22;67061;48.524;9.040;2023-10-08T14:23:23;26.10;34.60
77865;DHT22;67061;48.524;9.040;2023-10-08T14:25:50;26.20;35.50
77865;DHT22;67061;48.524;9.040;2023-10-08T14:28:18;26.20;34.20
77865;DHT22;67061;48.524;9.040;2023-10-08T14:31:06;26.20;34.80
77865;DHT22;67061;48.524;9.040;2023-10-08T14:33:33;26.10;34.70
77865;DHT22;67061;48.524;9.040;2023-10-08T14:36:09;26.10;34.70
77865;DHT22;67061;48.524;9.040;2023-10-08T14:38:54;26.00;34.60
77865;DHT22;67061;48.524;9.040;2023-10-08T14:41:39;26.00;34.80
77865;DHT22;67061;48.524;9.040;2023-10-08T14:44:23;25.90;34.80
77865;DHT22;67061;48.524;9.040;2023-10-08T14:46:50;26.00;34.70
77865;DHT22;67061;48.524;9.040;2023-10-08T14:49:20;25.80;35.30
77865;DHT22;67061;48.524;9.040;2023-10-08T14:51:49;25.90;34.10
77865;DHT22;67061;48.524;9.040;2023-10-08T14:54:19;26.00;34.20
77865;DHT22;67061;48.524;9.040;2023-10-08T14:56:47;26.00;34.70
77865;DHT22;67061;48.524;9.040;2023-10-08T14:59:14;26.00;34.20
77865;DHT22;67061;48.524;9.040;2023-10-08T15:01:43;26.00;35.50
77865;DHT22;67061;48.524;9.040;2023-10-08T15:04:12;25.90;35.70
77865;DHT22;67061;48.524;9.040;2023-10-08T15:06:40;25.80;36.90
77865;DHT22;67061;48.524;9.040;2023-10-08T15:09:10;25.60;37.10
77865;DHT22;67061;48.524;9.040;2023-10-08T15:11:44;25.50;36.40
77865;DHT22;67061;48.524;9.040;2023-10-08T15:14:11;25.60;36.90
77865;DHT22;67061;48.524;9.040;2023-10-08T15:16:41;25.60;34.90
77865;DHT22;67061;48.524;9.040;2023-10-08T15:19:09;25.50;36.10
77865;DHT22;67061;48.524;9.040;2023-10-08T15:21:37;25.40;35.80
77865;DHT22;67061;48.524;9.040;2023-10-08T15:24:05;25.30;36.90
77865;DHT22;67061;48.524;9.040;2023-10-08T15:26:37;25.20;38.30
77865;DHT22;67061;48.524;9.040;2023-10-08T15:29:05;25.00;39.10
77865;DHT22;67061;48.524;9.040;2023-10-08T15:31:32;24.80;39.20
77865;DHT22;67061;48.524;9.040;2023-10-08T15:33:59;24.80;37.10
77865;DHT22;67061;48.524;9.040;2023-10-08T15:36:30;24.80;38.20
77865;DHT22;67061;48.524;9.040;2023-10-08T15:38:57;24.80;38.40
77865;DHT22;67061;48.524;9.040;2023-10-08T15:41:24;24.70;40.20
77865;DHT22;67061;48.524;9.040;2023-10-08T15:43:53;24.50;40.60
77865;DHT22;67061;48.524;9.040;2023-10-08T15:46:24;24.40;40.20
77865;DHT22;67061;48.524;9.040;2023-10-08T15:48:52;24.40;40.70
77865;DHT22;67061;48.524;9.040;2023-10-08T15:51:19;24.30;41.90
77865;DHT22;67061;48.524;9.040;2023-10-08T15:53:46;24.20;41.90
77865;DHT22;67061;48.524;9.040;2023-10-08T15:56:12;24.00;42.20
77865;DHT22;67061;48.524;9.040;2023-10-08T15:58:39;24.00;42.50
77865;DHT22;67061;48.524;9.040;2023-10-08T16:01:08;24.00;42.80
77865;DHT22;67061;48.524;9.040;2023-10-08T16:03:38;24.00;43.00
77865;DHT22;67061;48.524;9.040;2023-10-08T16:06:05;23.90;42.10